sensor_id;sensor_type;location;lat;lon;timestamp;temperature;humidity
41720;DHT22;27405;53.316;-6.294;2024-03-23T00:55:38;5.10;99.90
41720;DHT22;27405;53.316;-6.294;2024-03-23T00:58:04;5.10;99.90
41720;DHT22;27405;53.316;-6.294;2024-03-23T01:00:29;5.10;99.90
41720;DHT22;27405;53.316;-6.294;2024-03-23T01:02:55;5.00;99.90
41720;DHT22;27405;53.316;-6.294;2024-03-23T01:05:21;5.00;99.90
41720;DHT22;27405;53.316;-6.294;2024-03-23T01:07:47;5.00;99.90
41720;DHT22;27405;53.316;-6.294;2024-03-23T01:10:12;5.00;99.90
41720;DHT22;27405;53.316;-6.294;2024-03-23T01:12:38;5.00;99.90
41720;DHT22;27405;53.316;-6.294;2024-03-23T01:15:04;5.10;99.90
41720;DHT22;27405;53.316;-6.294;2024-03-23T01:17:30;5.00;99.90
41720;DHT22;27405;53.316;-6.294;2024-03-23T01:19:55;5.00;99.90
41720;DHT22;27405;53.316;-6.294;2024-03-23T01:22:21;5.00;99.90
41720;DHT22;27405;53.316;-6.294;2024-03-23T01:24:46;5.10;99.90
41720;DHT22;27405;53.316;-6.294;2024-03-23T01:27:12;5.00;99.90
41720;DHT22;27405;53.316;-6.294;2024-03-23T01:29:38;5.10;99.90
41720;DHT22;27405;53.316;-6.294;2024-03-23T01:32:04;5.10;99.90
41720;DHT22;27405;53.316;-6.294;2024-03-23T01:34:30;5.10;99.90
41720;DHT22;27405;53.316;-6.294;2024-03-23T01:36:55;5.10;99.90
41720;DHT22;27405;53.316;-6.294;2024-03-23T01:39:21;5.10;99.90
41720;DHT22;27405;53.316;-6.294;2024-03-23T01:41:47;5.10;99.90
41720;DHT22;27405;53.316;-6.294;2024-03-23T01:44:12;5.10;99.90
41720;DHT22;27405;53.316;-6.294;2024-03-23T01:46:38;5.10;99.90
41720;DHT22;27405;53.316;-6.294;2024-03-23T01:49:05;5.10;99.90
41720;DHT22;27405;53.316;-6.294;2024-03-23T01:51:32;5.10;99.90
41720;DHT22;27405;53.316;-6.294;2024-03-23T01:54:00;5.10;99.90
41720;DHT22;27405;53.316;-6.294;2024-03-23T01:56:32;5.10;99.90
41720;DHT22;27405;53.316;-6.294;2024-03-23T01:59:07;5.10;99.90
41720;DHT22;27405;53.316;-6.294;2024-03-23T02:01:34;5.10;99.90
41720;DHT22;27405;53.316;-6.294;2024-03-23T02:04:01;5.10;99.90
41720;DHT22;27405;53.316;-6.294;2024-03-23T02:06:27;5.10;99.90
41720;DHT22;27405;53.316;-6.294;2024-03-23T02:08:54;5.10;99.90
41720;DHT22;27405;53.316;-6.294;2024-03-23T02:11:20;5.10;99.90
41720;DHT22;27405;53.316;-6.294;2024-03-23T02:13:46;5.10;99.90
41720;DHT22;27405;53.316;-6.294;2024-03-23T02:16:12;5.20;99.90
41720;DHT22;27405;53.316;-6.294;2024-03-23T02:18:38;5.20;99.90
41720;DHT22;27405;53.316;-6.294;2024-03-23T02:21:04;5.20;99.90
41720;DHT22;27405;53.316;-6.294;2024-03-23T02:23:30;5.20;99.90
41720;DHT22;27405;53.316;-6.294;2024-03-23T02:25:56;5.20;99.90
41720;DHT22;27405;53.316;-6.294;2024-03-23T02:28:21;5.20;99.90
41720;DHT22;27405;53.316;-6.294;2024-03-23T02:30:51;5.30;99.90
41720;DHT22;27405;53.316;-6.294;2024-03-23T02:33:17;5.30;99.90
41720;DHT22;27405;53.316;-6.294;2024-03-23T02:35:45;5.30;99.90
41720;DHT22;27405;53.316;-6.294;2024-03-23T02:38:11;5.30;99.90
41720;DHT22;27405;53.316;-6.294;2024-03-23T02:40:36;5.30;99.90
41720;DHT22;27405;53.316;-6.294;2024-03-23T02:43:03;5.30;99.90
41720;DHT22;27405;53.316;-6.294;2024-03-23T02:45:29;5.30;99.90
41720;DHT22;27405;53.316;-6.294;2024-03-23T02:47:55;5.30;99.90
41720;DHT22;27405;53.316;-6.294;2024-03-23T02:50:22;5.30;99.90
41720;DHT22;27405;53.316;-6.294;2024-03-23T02:52:48;5.30;99.90
41720;DHT22;27405;53.316;-6.294;2024-03-23T02:55:14;5.30;99.90
41720;DHT22;27405;53.316;-6.294;2024-03-23T02:57:40;5.30;99.90
41720;DHT22;27405;53.316;-6.294;2024-03-23T03:00:06;5.40;99.90
41720;DHT22;27405;53.316;-6.294;2024-03-23T03:02:33;5.40;99.90
41720;DHT22;27405;53.316;-6.294;2024-03-23T03:04:59;5.40;99.90
41720;DHT22;27405;53.316;-6.294;2024-03-23T03:07:24;5.50;99.90
41720;DHT22;27405;53.316;-6.294;2024-03-23T03:09:50;5.50;99.90
41720;DHT22;27405;53.316;-6.294;2024-03-23T03:12:15;5.60;99.90
41720;DHT22;27405;53.316;-6.294;2024-03-23T03:14:41;5.60;99.90
41720;DHT22;27405;53.316;-6.294;2024-03-23T03:17:07;5.60;99.90
41720;DHT22;27405;53.316;-6.294;2024-03-23T03:19:32;5.70;99.90
41720;DHT22;27405;53.316;-6.294;2024-03-23T03:21:58;5.70;99.90
41720;DHT22;27405;53.316;-6.294;2024-03-23T03:24:24;5.70;99.90
41720;DHT22;27405;53.316;-6.294;2024-03-23T03:26:49;5.60;99.90
41720;DHT22;27405;53.316;-6.294;2024-03-23T03:29:15;5.60;99.90
41720;DHT22;27405;53.316;-6.294;2024-03-23T03:31:42;5.60;99.90
41720;DHT22;27405;53.316;-6.294;2024-03-23T03:34:08;5.60;99.90
41720;DHT22;27405;53.316;-6.294;2024-03-23T03:36:33;5.60;99.90
41720;DHT22;27405;53.316;-6.294;2024-03-23T03:38:59;5.60;99.90
41720;DHT22;27405;53.316;-6.294;2024-03-23T03:41:25;5.60;99.90
41720;DHT22;27405;53.316;-6.294;2024-03-23T03:43:51;5.60;99.90
41720;DHT22;27405;53.316;-6.294;2024-03-23T03:46:16;5.60;99.90
41720;DHT22;27405;53.316;-6.294;2024-03-23T03:48:42;5.60;99.90
41720;DHT22;27405;53.316;-6.294;2024-03-23T03:51:10;5.70;99.90
41720;DHT22;27405;53.316;-6.294;2024-03-23T03:53:36;5.70;99.90
41720;DHT22;27405;53.316;-6.294;2024-03-23T03:56:01;5.70;99.90
41720;DHT22;27405;53.316;-6.294;2024-03-23T03:58:27;5.70;99.90
41720;DHT22;27405;53.316;-6.294;2024-03-23T04:00:53;5.60;99.90
41720;DHT22;27405;53.316;-6.294;2024-03-23T04:03:19;5.60;99.90
41720;DHT22;27405;53.316;-6.294;2024-03-23T04:05:54;5.60;99.90
41720;DHT22;27405;53.316;-6.294;2024-03-23T04:08:20;5.50;99.90
41720;DHT22;27405;53.316;-6.294;2024-03-23T04:10:46;5.50;99.90
41720;DHT22;27405;53.316;-6.294;2024-03-23T04:13:15;5.50;99.90
41720;DHT22;27405;53.316;-6.294;2024-03-23T04:15:41;5.50;99.90
41720;DHT22;27405;53.316;-6.294;2024-03-23T04:18:07;5.50;99.90
41720;DHT22;27405;53.316;-6.294;2024-03-23T04:20:33;5.50;99.90
41720;DHT22;27405;53.316;-6.294;2024-03-23T04:22:59;5.50;99.90
41720;DHT22;27405;53.316;-6.294;2024-03-23T04:25:25;5.50;99.90
41720;DHT22;27405;53.316;-6.294;2024-03-23T04:27:50;5.60;99.90
41720;DHT22;27405;53.316;-6.294;2024-03-23T04:30:16;5.60;99.90
41720;DHT22;27405;53.316;-6.294;2024-03-23T04:32:43;5.60;99.90
41720;DHT22;27405;53.316;-6.294;2024-03-23T04:35:09;5.60;99.90
41720;DHT22;27405;53.316;-6.294;2024-03-23T04:37:39;5.60;99.90
41720;DHT22;27405;53.316;-6.294;2024-03-23T04:40:07;5.50;99.90
41720;DHT22;27405;53.316;-6.294;2024-03-23T04:42:33;5.50;99.90
41720;DHT22;27405;53.316;-6.294;2024-03-23T04:44:59;5.50;99.90
41720;DHT22;27405;53.316;-6.294;2024-03-23T04:47:25;5.50;99.90
41720;DHT22;27405;53.316;-6.294;2024-03-23T04:49:51;5.50;99.90
41720;DHT22;27405;53.316;-6.294;2024-03-23T04:52:17;5.60;99.90
41720;DHT22;27405;53.316;-6.294;2024-03-23T04:54:43;5.60;99.90
41720;DHT22;27405;53.316;-6.294;2024-03-23T04:57:09;5.60;99.90
41720;DHT22;27405;53.316;-6.294;2024-03-23T04:59:34;5.50;99.90
41720;DHT22;27405;53.316;-6.294;2024-03-23T05:02:00;5.50;99.90
41720;DHT22;27405;53.316;-6.294;2024-03-23T05:04:27;5.50;99.90
41720;DHT22;27405;53.316;-6.294;2024-03-23T05:06:52;5.50;99.90
41720;DHT22;27405;53.316;-6.294;2024-03-23T05:09:18;5.50;99.90
41720;DHT22;27405;53.316;-6.294;2024-03-23T05:11:45;5.50;99.90
41720;DHT22;27405;53.316;-6.294;2024-03-23T05:14:13;5.40;99.90
41720;DHT22;27405;53.316;-6.294;2024-03-23T05:16:38;5.40;99.90
41720;DHT22;27405;53.316;-6.294;2024-03-23T05:19:04;5.40;99.90
41720;DHT22;27405;53.316;-6.294;2024-03-23T05:21:30;5.50;99.90
41720;DHT22;27405;53.316;-6.294;2024-03-23T05:23:55;5.50;99.90
41720;DHT22;27405;53.316;-6.294;2024-03-23T05:26:22;5.50;99.90
41720;DHT22;27405;53.316;-6.294;2024-03-23T05:28:48;5.50;99.90
41720;DHT22;27405;53.316;-6.294;2024-03-23T05:31:27;5.50;99.90
41720;DHT22;27405;53.316;-6.294;2024-03-23T05:33:53;5.50;99.90
41720;DHT22;27405;53.316;-6.294;2024-03-23T05:36:18;5.60;99.90
41720;DHT22;27405;53.316;-6.294;2024-03-23T05:38:44;5.60;99.90
41720;DHT22;27405;53.316;-6.294;2024-03-23T05:41:10;5.60;99.90
41720;DHT22;27405;53.316;-6.294;2024-03-23T05:43:35;5.60;99.90
41720;DHT22;27405;53.316;-6.294;2024-03-23T05:46:01;5.60;99.90
41720;DHT22;27405;53.316;-6.294;2024-03-23T05:48:36;5.70;99.90
41720;DHT22;27405;53.316;-6.294;2024-03-23T05:51:02;5.70;99.90
41720;DHT22;27405;53.316;-6.294;2024-03-23T05:53:28;5.80;99.90
41720;DHT22;27405;53.316;-6.294;2024-03-23T05:56:03;5.80;99.90
41720;DHT22;27405;53.316;-6.294;2024-03-23T05:58:32;5.80;99.90
41720;DHT22;27405;53.316;-6.294;2024-03-23T06:00:59;5.80;99.90
41720;DHT22;27405;53.316;-6.294;2024-03-23T06:03:25;5.80;99.90
41720;DHT22;27405;53.316;-6.294;2024-03-23T06:05:52;5.90;99.90
41720;DHT22;27405;53.316;-6.294;2024-03-23T06:08:18;5.90;99.90
41720;DHT22;27405;53.316;-6.294;2024-03-23T06:10:45;5.90;99.90
41720;DHT22;27405;53.316;-6.294;2024-03-23T06:13:11;5.90;99.90
41720;DHT22;27405;53.316;-6.294;2024-03-23T06:15:37;5.80;99.90
41720;DHT22;27405;53.316;-6.294;2024-03-23T06:18:03;5.80;99.90
41720;DHT22;27405;53.316;-6.294;2024-03-23T06:20:29;5.80;99.90
41720;DHT22;27405;53.316;-6.294;2024-03-23T06:22:55;5.80;99.90
41720;DHT22;27405;53.316;-6.294;2024-03-23T06:25:20;5.80;99.90
41720;DHT22;27405;53.316;-6.294;2024-03-23T06:27:46;5.90;99.90
41720;DHT22;27405;53.316;-6.294;2024-03-23T06:30:12;5.90;99.90
41720;DHT22;27405;53.316;-6.294;2024-03-23T06:32:38;5.90;99.90
41720;DHT22;27405;53.316;-6.294;2024-03-23T06:35:03;5.90;99.90
41720;DHT22;27405;53.316;-6.294;2024-03-23T06:37:34;5.90;99.90
41720;DHT22;27405;53.316;-6.294;2024-03-23T06:39:59;5.90;99.90
41720;DHT22;27405;53.316;-6.294;2024-03-23T06:42:25;5.90;99.90
41720;DHT22;27405;53.316;-6.294;2024-03-23T06:44:50;6.00;99.90
41720;DHT22;27405;53.316;-6.294;2024-03-23T06:47:16;6.00;99.90
41720;DHT22;27405;53.316;-6.294;2024-03-23T06:49:42;5.90;99.90
41720;DHT22;27405;53.316;-6.294;2024-03-23T06:52:07;5.80;99.90
41720;DHT22;27405;53.316;-6.294;2024-03-23T06:54:33;5.80;99.90
41720;DHT22;27405;53.316;-6.294;2024-03-23T06:56:59;5.80;99.90
41720;DHT22;27405;53.316;-6.294;2024-03-23T06:59:25;5.80;99.90
41720;DHT22;27405;53.316;-6.294;2024-03-23T07:01:50;5.80;99.90
41720;DHT22;27405;53.316;-6.294;2024-03-23T07:04:16;5.80;99.90
41720;DHT22;27405;53.316;-6.294;2024-03-23T07:06:45;5.80;99.90
41720;DHT22;27405;53.316;-6.294;2024-03-23T07:09:11;5.80;99.90
41720;DHT22;27405;53.316;-6.294;2024-03-23T07:11:37;5.90;99.90
41720;DHT22;27405;53.316;-6.294;2024-03-23T07:14:02;5.90;99.90
41720;DHT22;27405;53.316;-6.294;2024-03-23T07:16:28;5.90;99.90
41720;DHT22;27405;53.316;-6.294;2024-03-23T07:18:54;5.90;99.90
41720;DHT22;27405;53.316;-6.294;2024-03-23T07:21:21;5.90;99.90
41720;DHT22;27405;53.316;-6.294;2024-03-23T07:23:46;6.00;99.90
41720;DHT22;27405;53.316;-6.294;2024-03-23T07:26:12;6.00;99.90
41720;DHT22;27405;53.316;-6.294;2024-03-23T07:28:38;6.10;99.90
41720;DHT22;27405;53.316;-6.294;2024-03-23T07:31:09;6.10;99.90
41720;DHT22;27405;53.316;-6.294;2024-03-23T07:33:43;6.20;99.90
41720;DHT22;27405;53.316;-6.294;2024-03-23T07:36:09;6.10;99.90
41720;DHT22;27405;53.316;-6.294;2024-03-23T07:38:35;6.10;99.90
41720;DHT22;27405;53.316;-6.294;2024-03-23T07:43:32;6.10;99.90
41720;DHT22;27405;53.316;-6.294;2024-03-23T07:45:59;6.10;99.90
41720;DHT22;27405;53.316;-6.294;2024-03-23T07:48:24;6.10;99.90
41720;DHT22;27405;53.316;-6.294;2024-03-23T07:51:07;6.20;99.90
41720;DHT22;27405;53.316;-6.294;2024-03-23T07:53:34;6.20;99.90
41720;DHT22;27405;53.316;-6.294;2024-03-23T07:56:10;6.30;99.90
41720;DHT22;27405;53.316;-6.294;2024-03-23T07:58:36;6.30;99.90
41720;DHT22;27405;53.316;-6.294;2024-03-23T08:01:09;6.30;99.90
41720;DHT22;27405;53.316;-6.294;2024-03-23T08:03:36;6.30;99.90
41720;DHT22;27405;53.316;-6.294;2024-03-23T08:08:40;6.30;99.90
41720;DHT22;27405;53.316;-6.294;2024-03-23T08:11:06;6.30;99.90
41720;DHT22;27405;53.316;-6.294;2024-03-23T08:13:32;6.30;99.90
41720;DHT22;27405;53.316;-6.294;2024-03-23T08:15:59;6.30;99.90
41720;DHT22;27405;53.316;-6.294;2024-03-23T08:18:24;6.30;99.90
41720;DHT22;27405;53.316;-6.294;2024-03-23T08:21:10;6.30;99.90
41720;DHT22;27405;53.316;-6.294;2024-03-23T08:23:36;6.40;99.90
41720;DHT22;27405;53.316;-6.294;2024-03-23T08:26:07;6.40;99.90
41720;DHT22;27405;53.316;-6.294;2024-03-23T08:28:34;6.50;99.90
41720;DHT22;27405;53.316;-6.294;2024-03-23T08:31:06;6.50;99.90
41720;DHT22;27405;53.316;-6.294;2024-03-23T08:33:32;6.50;99.90
41720;DHT22;27405;53.316;-6.294;2024-03-23T08:36:04;6.60;99.90
41720;DHT22;27405;53.316;-6.294;2024-03-23T08:38:31;6.60;99.90
41720;DHT22;27405;53.316;-6.294;2024-03-23T08:41:09;6.60;99.90
41720;DHT22;27405;53.316;-6.294;2024-03-23T08:43:39;6.70;99.90
41720;DHT22;27405;53.316;-6.294;2024-03-23T08:46:13;6.70;99.90
41720;DHT22;27405;53.316;-6.294;2024-03-23T08:48:40;6.70;99.90
41720;DHT22;27405;53.316;-6.294;2024-03-23T08:51:09;6.70;99.90
41720;DHT22;27405;53.316;-6.294;2024-03-23T08:53:35;6.70;99.90
41720;DHT22;27405;53.316;-6.294;2024-03-23T08:56:02;6.60;99.90
41720;DHT22;27405;53.316;-6.294;2024-03-23T08:58:29;6.50;99.90
41720;DHT22;27405;53.316;-6.294;2024-03-23T09:00:56;6.50;99.90
41720;DHT22;27405;53.316;-6.294;2024-03-23T09:03:22;6.60;99.90
41720;DHT22;27405;53.316;-6.294;2024-03-23T09:05:49;6.60;99.90
41720;DHT22;27405;53.316;-6.294;2024-03-23T09:08:15;6.70;99.90
41720;DHT22;27405;53.316;-6.294;2024-03-23T09:10:41;6.70;99.90
41720;DHT22;27405;53.316;-6.294;2024-03-23T09:13:08;6.70;99.90
41720;DHT22;27405;53.316;-6.294;2024-03-23T09:15:44;6.70;99.90
41720;DHT22;27405;53.316;-6.294;2024-03-23T09:18:10;6.70;99.90
41720;DHT22;27405;53.316;-6.294;2024-03-23T09:20:36;6.70;99.90
41720;DHT22;27405;53.316;-6.294;2024-03-23T09:23:02;6.80;99.90
41720;DHT22;27405;53.316;-6.294;2024-03-23T09:25:27;6.80;99.90
41720;DHT22;27405;53.316;-6.294;2024-03-23T09:27:53;6.90;99.90
41720;DHT22;27405;53.316;-6.294;2024-03-23T09:30:18;7.00;99.90
41720;DHT22;27405;53.316;-6.294;2024-03-23T09:32:45;7.10;99.90
41720;DHT22;27405;53.316;-6.294;2024-03-23T09:35:11;7.20;99.90
41720;DHT22;27405;53.316;-6.294;2024-03-23T09:37:40;7.40;99.90
41720;DHT22;27405;53.316;-6.294;2024-03-23T09:40:09;7.50;99.90
41720;DHT22;27405;53.316;-6.294;2024-03-23T09:42:35;7.60;99.90
41720;DHT22;27405;53.316;-6.294;2024-03-23T09:45:00;7.70;99.90
41720;DHT22;27405;53.316;-6.294;2024-03-23T09:47:26;7.70;99.90
41720;DHT22;27405;53.316;-6.294;2024-03-23T09:49:52;7.70;99.90
41720;DHT22;27405;53.316;-6.294;2024-03-23T09:52:19;7.70;99.90
41720;DHT22;27405;53.316;-6.294;2024-03-23T09:54:44;7.60;99.90
41720;DHT22;27405;53.316;-6.294;2024-03-23T09:57:10;7.50;99.90
41720;DHT22;27405;53.316;-6.294;2024-03-23T09:59:36;7.30;99.90
41720;DHT22;27405;53.316;-6.294;2024-03-23T10:02:02;7.00;99.90
41720;DHT22;27405;53.316;-6.294;2024-03-23T10:04:37;6.70;99.90
41720;DHT22;27405;53.316;-6.294;2024-03-23T10:07:13;6.40;99.90
41720;DHT22;27405;53.316;-6.294;2024-03-23T10:09:40;6.20;99.90
41720;DHT22;27405;53.316;-6.294;2024-03-23T10:12:13;6.10;99.90
41720;DHT22;27405;53.316;-6.294;2024-03-23T10:14:42;6.10;99.90
41720;DHT22;27405;53.316;-6.294;2024-03-23T10:19:42;6.30;99.90
41720;DHT22;27405;53.316;-6.294;2024-03-23T10:22:09;6.40;99.90
41720;DHT22;27405;53.316;-6.294;2024-03-23T10:24:35;6.40;99.90
41720;DHT22;27405;53.316;-6.294;2024-03-23T10:27:01;6.40;99.90
41720;DHT22;27405;53.316;-6.294;2024-03-23T10:29:26;6.50;99.90
41720;DHT22;27405;53.316;-6.294;2024-03-23T10:31:53;6.50;99.90
41720;DHT22;27405;53.316;-6.294;2024-03-23T10:34:26;6.60;99.90
41720;DHT22;27405;53.316;-6.294;2024-03-23T10:36:53;6.70;99.90
41720;DHT22;27405;53.316;-6.294;2024-03-23T10:39:21;6.80;99.90
41720;DHT22;27405;53.316;-6.294;2024-03-23T10:41:49;6.90;99.90
41720;DHT22;27405;53.316;-6.294;2024-03-23T10:44:17;7.00;99.90
41720;DHT22;27405;53.316;-6.294;2024-03-23T10:46:45;7.20;99.90
41720;DHT22;27405;53.316;-6.294;2024-03-23T10:49:10;7.30;99.90
41720;DHT22;27405;53.316;-6.294;2024-03-23T10:51:37;7.50;99.90
41720;DHT22;27405;53.316;-6.294;2024-03-23T10:54:04;7.60;99.90
41720;DHT22;27405;53.316;-6.294;2024-03-23T10:56:34;7.70;99.90
41720;DHT22;27405;53.316;-6.294;2024-03-23T10:59:01;7.90;99.90
41720;DHT22;27405;53.316;-6.294;2024-03-23T11:01:28;8.00;99.90
41720;DHT22;27405;53.316;-6.294;2024-03-23T11:03:54;8.20;99.90
41720;DHT22;27405;53.316;-6.294;2024-03-23T11:06:36;8.20;99.90
41720;DHT22;27405;53.316;-6.294;2024-03-23T11:09:02;8.30;99.90
41720;DHT22;27405;53.316;-6.294;2024-03-23T11:11:28;8.30;99.90
41720;DHT22;27405;53.316;-6.294;2024-03-23T11:13:57;8.40;99.90
41720;DHT22;27405;53.316;-6.294;2024-03-23T11:16:26;8.50;99.90
41720;DHT22;27405;53.316;-6.294;2024-03-23T11:18:54;8.60;99.90
41720;DHT22;27405;53.316;-6.294;2024-03-23T11:21:51;8.70;99.90
41720;DHT22;27405;53.316;-6.294;2024-03-23T11:24:18;8.80;99.90
41720;DHT22;27405;53.316;-6.294;2024-03-23T11:26:44;8.90;99.90
41720;DHT22;27405;53.316;-6.294;2024-03-23T11:29:11;8.90;99.90
41720;DHT22;27405;53.316;-6.294;2024-03-23T11:31:37;8.90;99.90
41720;DHT22;27405;53.316;-6.294;2024-03-23T11:34:05;9.00;99.90
41720;DHT22;27405;53.316;-6.294;2024-03-23T11:36:30;8.90;99.90
41720;DHT22;27405;53.316;-6.294;2024-03-23T11:38:56;8.80;99.90
41720;DHT22;27405;53.316;-6.294;2024-03-23T11:41:22;8.80;99.90
41720;DHT22;27405;53.316;-6.294;2024-03-23T11:43:48;9.00;99.90
41720;DHT22;27405;53.316;-6.294;2024-03-23T11:46:22;9.00;99.90
41720;DHT22;27405;53.316;-6.294;2024-03-23T11:48:51;8.90;99.90
41720;DHT22;27405;53.316;-6.294;2024-03-23T11:51:17;8.80;99.90
41720;DHT22;27405;53.316;-6.294;2024-03-23T11:53:42;8.80;99.90
41720;DHT22;27405;53.316;-6.294;2024-03-23T11:56:08;8.70;99.90
41720;DHT22;27405;53.316;-6.294;2024-03-23T11:58:35;8.80;99.90
41720;DHT22;27405;53.316;-6.294;2024-03-23T12:01:01;8.90;99.90
41720;DHT22;27405;53.316;-6.294;2024-03-23T12:03:31;9.00;99.90
41720;DHT22;27405;53.316;-6.294;2024-03-23T12:06:01;9.10;99.90
41720;DHT22;27405;53.316;-6.294;2024-03-23T12:08:32;9.20;99.90
41720;DHT22;27405;53.316;-6.294;2024-03-23T12:11:06;9.30;99.90
41720;DHT22;27405;53.316;-6.294;2024-03-23T12:13:32;9.30;99.90
41720;DHT22;27405;53.316;-6.294;2024-03-23T12:18:35;9.20;99.90
41720;DHT22;27405;53.316;-6.294;2024-03-23T12:21:01;9.30;99.90
41720;DHT22;27405;53.316;-6.294;2024-03-23T12:23:27;9.40;99.90
41720;DHT22;27405;53.316;-6.294;2024-03-23T12:25:52;9.40;99.90
41720;DHT22;27405;53.316;-6.294;2024-03-23T12:28:18;9.40;99.90
41720;DHT22;27405;53.316;-6.294;2024-03-23T12:30:44;9.50;99.90
41720;DHT22;27405;53.316;-6.294;2024-03-23T12:33:09;9.50;99.90
41720;DHT22;27405;53.316;-6.294;2024-03-23T12:35:35;9.60;99.90
41720;DHT22;27405;53.316;-6.294;2024-03-23T12:38:00;9.70;99.90
41720;DHT22;27405;53.316;-6.294;2024-03-23T12:40:26;9.90;99.90
41720;DHT22;27405;53.316;-6.294;2024-03-23T12:42:55;10.00;99.90
41720;DHT22;27405;53.316;-6.294;2024-03-23T12:45:22;10.00;99.90
41720;DHT22;27405;53.316;-6.294;2024-03-23T12:47:47;10.10;99.90
41720;DHT22;27405;53.316;-6.294;2024-03-23T12:50:13;10.10;99.90
41720;DHT22;27405;53.316;-6.294;2024-03-23T12:52:39;10.10;99.90
41720;DHT22;27405;53.316;-6.294;2024-03-23T12:55:05;10.10;99.90
41720;DHT22;27405;53.316;-6.294;2024-03-23T12:57:31;10.10;99.90
41720;DHT22;27405;53.316;-6.294;2024-03-23T12:59:57;10.10;99.90
41720;DHT22;27405;53.316;-6.294;2024-03-23T13:02:24;10.20;99.90
41720;DHT22;27405;53.316;-6.294;2024-03-23T13:04:50;10.40;99.90
41720;DHT22;27405;53.316;-6.294;2024-03-23T13:07:17;10.60;99.90
41720;DHT22;27405;53.316;-6.294;2024-03-23T13:09:43;10.70;99.90
41720;DHT22;27405;53.316;-6.294;2024-03-23T13:12:09;10.70;99.90
41720;DHT22;27405;53.316;-6.294;2024-03-23T13:14:35;10.80;99.90
41720;DHT22;27405;53.316;-6.294;2024-03-23T13:17:00;10.90;99.90
41720;DHT22;27405;53.316;-6.294;2024-03-23T13:19:27;10.90;99.80
41720;DHT22;27405;53.316;-6.294;2024-03-23T13:21:59;10.90;99.40
41720;DHT22;27405;53.316;-6.294;2024-03-23T13:24:28;10.80;99.40
41720;DHT22;27405;53.316;-6.294;2024-03-23T13:26:55;10.60;99.90
41720;DHT22;27405;53.316;-6.294;2024-03-23T13:29:21;10.30;99.90
41720;DHT22;27405;53.316;-6.294;2024-03-23T13:31:48;10.00;99.90
41720;DHT22;27405;53.316;-6.294;2024-03-23T13:34:14;9.80;99.90
41720;DHT22;27405;53.316;-6.294;2024-03-23T13:36:43;9.60;99.90
41720;DHT22;27405;53.316;-6.294;2024-03-23T13:39:09;9.40;99.90
41720;DHT22;27405;53.316;-6.294;2024-03-23T13:41:38;9.30;99.90
41720;DHT22;27405;53.316;-6.294;2024-03-23T13:44:08;9.20;99.90
41720;DHT22;27405;53.316;-6.294;2024-03-23T13:46:36;9.30;99.90
41720;DHT22;27405;53.316;-6.294;2024-03-23T13:49:01;9.40;99.90
41720;DHT22;27405;53.316;-6.294;2024-03-23T13:51:27;9.50;99.90
41720;DHT22;27405;53.316;-6.294;2024-03-23T13:53:56;9.60;99.90
41720;DHT22;27405;53.316;-6.294;2024-03-23T13:56:23;9.80;99.90
41720;DHT22;27405;53.316;-6.294;2024-03-23T13:58:48;9.90;99.90
41720;DHT22;27405;53.316;-6.294;2024-03-23T14:01:15;10.10;99.90
41720;DHT22;27405;53.316;-6.294;2024-03-23T14:03:42;10.20;99.90
41720;DHT22;27405;53.316;-6.294;2024-03-23T14:06:08;10.40;99.90
41720;DHT22;27405;53.316;-6.294;2024-03-23T14:08:35;10.50;99.90
41720;DHT22;27405;53.316;-6.294;2024-03-23T14:11:02;10.50;99.90
41720;DHT22;27405;53.316;-6.294;2024-03-23T14:13:29;10.60;99.90
41720;DHT22;27405;53.316;-6.294;2024-03-23T14:15:55;10.60;99.90
41720;DHT22;27405;53.316;-6.294;2024-03-23T14:18:20;10.50;99.90
41720;DHT22;27405;53.316;-6.294;2024-03-23T14:20:48;10.40;99.90
41720;DHT22;27405;53.316;-6.294;2024-03-23T14:23:14;10.40;99.90
41720;DHT22;27405;53.316;-6.294;2024-03-23T14:25:39;10.30;99.90
41720;DHT22;27405;53.316;-6.294;2024-03-23T14:28:05;10.30;99.90
41720;DHT22;27405;53.316;-6.294;2024-03-23T14:30:31;10.30;99.90
41720;DHT22;27405;53.316;-6.294;2024-03-23T14:32:57;10.40;99.90
41720;DHT22;27405;53.316;-6.294;2024-03-23T14:35:22;10.40;99.90
41720;DHT22;27405;53.316;-6.294;2024-03-23T14:37:49;10.50;99.90
41720;DHT22;27405;53.316;-6.294;2024-03-23T14:40:14;10.60;99.90
41720;DHT22;27405;53.316;-6.294;2024-03-23T14:42:40;10.70;99.90
41720;DHT22;27405;53.316;-6.294;2024-03-23T14:45:07;10.80;99.90
41720;DHT22;27405;53.316;-6.294;2024-03-23T14:47:33;10.80;99.90
41720;DHT22;27405;53.316;-6.294;2024-03-23T14:49:58;11.00;99.90
41720;DHT22;27405;53.316;-6.294;2024-03-23T14:52:24;11.20;99.90
41720;DHT22;27405;53.316;-6.294;2024-03-23T14:54:50;11.50;99.90
41720;DHT22;27405;53.316;-6.294;2024-03-23T14:57:15;11.70;99.50
41720;DHT22;27405;53.316;-6.294;2024-03-23T14:59:41;11.80;99.00
41720;DHT22;27405;53.316;-6.294;2024-03-23T15:02:07;11.80;98.70
41720;DHT22;27405;53.316;-6.294;2024-03-23T15:04:33;11.90;98.70
41720;DHT22;27405;53.316;-6.294;2024-03-23T15:06:59;11.80;98.60
41720;DHT22;27405;53.316;-6.294;2024-03-23T15:09:25;11.90;98.50
41720;DHT22;27405;53.316;-6.294;2024-03-23T15:11:51;11.80;98.20
41720;DHT22;27405;53.316;-6.294;2024-03-23T15:14:16;11.70;98.40
41720;DHT22;27405;53.316;-6.294;2024-03-23T15:16:42;11.80;98.50
41720;DHT22;27405;53.316;-6.294;2024-03-23T15:19:08;12.10;98.50
41720;DHT22;27405;53.316;-6.294;2024-03-23T15:21:34;12.30;97.90
41720;DHT22;27405;53.316;-6.294;2024-03-23T15:24:00;12.30;96.90
41720;DHT22;27405;53.316;-6.294;2024-03-23T15:26:26;12.20;96.60
41720;DHT22;27405;53.316;-6.294;2024-03-23T15:28:51;12.30;96.70
41720;DHT22;27405;53.316;-6.294;2024-03-23T15:31:35;12.80;96.70
41720;DHT22;27405;53.316;-6.294;2024-03-23T15:34:01;13.10;95.70
41720;DHT22;27405;53.316;-6.294;2024-03-23T15:36:26;13.20;95.10
41720;DHT22;27405;53.316;-6.294;2024-03-23T15:38:52;13.30;95.00
41720;DHT22;27405;53.316;-6.294;2024-03-23T15:41:20;13.50;94.50
41720;DHT22;27405;53.316;-6.294;2024-03-23T15:43:48;13.50;94.00
41720;DHT22;27405;53.316;-6.294;2024-03-23T15:46:14;13.70;93.70
41720;DHT22;27405;53.316;-6.294;2024-03-23T15:48:40;13.80;93.30
41720;DHT22;27405;53.316;-6.294;2024-03-23T15:51:11;13.80;92.80
41720;DHT22;27405;53.316;-6.294;2024-03-23T15:53:37;13.60;92.20
41720;DHT22;27405;53.316;-6.294;2024-03-23T15:56:03;13.30;91.80
41720;DHT22;27405;53.316;-6.294;2024-03-23T15:58:30;12.90;91.70
41720;DHT22;27405;53.316;-6.294;2024-03-23T16:00:57;12.60;91.70
41720;DHT22;27405;53.316;-6.294;2024-03-23T16:03:24;12.40;91.90
41720;DHT22;27405;53.316;-6.294;2024-03-23T16:05:51;12.20;92.10
41720;DHT22;27405;53.316;-6.294;2024-03-23T16:08:16;12.10;92.10
41720;DHT22;27405;53.316;-6.294;2024-03-23T16:10:42;11.90;92.00
41720;DHT22;27405;53.316;-6.294;2024-03-23T16:13:08;11.80;92.20
41720;DHT22;27405;53.316;-6.294;2024-03-23T16:15:34;11.70;92.40
41720;DHT22;27405;53.316;-6.294;2024-03-23T16:18:00;11.60;92.50
41720;DHT22;27405;53.316;-6.294;2024-03-23T16:20:26;11.50;92.80
41720;DHT22;27405;53.316;-6.294;2024-03-23T16:22:51;11.50;93.00
41720;DHT22;27405;53.316;-6.294;2024-03-23T16:25:17;11.40;93.10
41720;DHT22;27405;53.316;-6.294;2024-03-23T16:27:42;11.30;93.10
41720;DHT22;27405;53.316;-6.294;2024-03-23T16:30:08;11.20;93.10